createdAt,value
2019-04-26T00:01:40.258Z,8.97
2019-04-26T00:04:10.279Z,8.96
2019-04-26T00:06:39.882Z,8.93
2019-04-26T00:09:28.583Z,8.92
2019-04-26T00:12:16.396Z,8.94
2019-04-26T00:14:56.811Z,8.94
2019-04-26T00:17:36.041Z,8.94
2019-04-26T00:20:12.975Z,8.95
2019-04-26T00:22:42.472Z,8.91
2019-04-26T00:25:12.481Z,8.88
2019-04-26T00:27:42.034Z,8.84
2019-04-26T00:30:12.066Z,8.81
2019-04-26T00:32:42.342Z,8.80
2019-04-26T00:35:12.929Z,8.79
2019-04-26T00:37:43.105Z,8.78
2019-04-26T00:40:13.339Z,8.74
2019-04-26T00:42:47.256Z,8.73
2019-04-26T00:45:18.915Z,8.70
2019-04-26T00:47:49.180Z,8.69
2019-04-26T00:50:19.106Z,8.71
2019-04-26T00:52:49.426Z,8.74
2019-04-26T00:55:21.958Z,8.73
2019-04-26T00:57:52.679Z,8.76
2019-04-26T01:00:23.884Z,8.79
2019-04-26T01:02:55.949Z,8.83
2019-04-26T01:05:25.369Z,8.85
2019-04-26T01:08:03.166Z,8.86
2019-04-26T01:10:32.550Z,8.89
2019-04-26T01:13:02.038Z,8.91
2019-04-26T01:15:31.478Z,8.91
2019-04-26T01:18:01.223Z,8.91
2019-04-26T01:20:33.322Z,8.89
2019-04-26T01:23:12.595Z,8.89
2019-04-26T01:25:53.827Z,8.85
2019-04-26T01:28:32.690Z,8.82
2019-04-26T01:31:04.764Z,8.80
2019-04-26T01:33:36.337Z,8.78
2019-04-26T01:36:12.759Z,8.76
2019-04-26T01:38:37.198Z,8.71
2019-04-26T01:41:12.736Z,8.64
2019-04-26T01:44:05.700Z,8.61
2019-04-26T01:46:41.658Z,8.55
2019-04-26T01:49:14.027Z,8.49
2019-04-26T01:51:52.002Z,8.47
2019-04-26T01:54:25.697Z,8.44
2019-04-26T01:56:58.893Z,8.43
2019-04-26T01:59:29.499Z,8.39
2019-04-26T02:02:32.028Z,8.35
2019-04-26T02:05:03.783Z,8.33
2019-04-26T02:07:40.026Z,8.28
2019-04-26T02:10:15.705Z,8.27
2019-04-26T02:12:48.316Z,8.28
2019-04-26T02:15:20.021Z,8.27
2019-04-26T02:17:51.699Z,8.25
2019-04-26T02:21:21.908Z,8.24
2019-04-26T02:24:18.421Z,8.22
2019-04-26T02:26:52.850Z,8.19
2019-04-26T02:29:26.831Z,8.15
2019-04-26T02:32:00.918Z,8.11
2019-04-26T02:34:33.927Z,8.09
2019-04-26T02:37:07.149Z,8.07
2019-04-26T02:39:40.986Z,8.03
2019-04-26T02:42:28.032Z,8.00
2019-04-26T02:45:30.024Z,7.96
2019-04-26T02:48:34.777Z,7.93
2019-04-26T02:51:08.272Z,7.90
2019-04-26T02:53:51.197Z,7.88
2019-04-26T02:56:40.115Z,7.86
2019-04-26T02:59:40.700Z,7.81
2019-04-26T03:02:19.555Z,7.76
2019-04-26T03:04:52.735Z,7.71
2019-04-26T03:07:53.867Z,7.70
2019-04-26T03:10:44.485Z,7.68
2019-04-26T03:13:34.272Z,7.65
2019-04-26T03:16:18.358Z,7.62
2019-04-26T03:19:03.793Z,7.59
2019-04-26T03:21:47.582Z,7.55
2019-04-26T03:24:25.002Z,7.50
2019-04-26T03:27:21.309Z,7.47
2019-04-26T03:30:19.439Z,7.43
2019-04-26T03:33:30.236Z,7.40
2019-04-26T03:36:48.802Z,7.38
2019-04-26T03:39:34.977Z,7.41
2019-04-26T03:42:45.034Z,7.44
2019-04-26T03:45:30.924Z,7.47
2019-04-26T03:48:36.032Z,7.58
2019-04-26T03:51:11.663Z,7.61
2019-04-26T03:54:01.292Z,7.70
2019-04-26T03:57:13.591Z,7.76
2019-04-26T04:00:31.804Z,7.85
2019-04-26T04:03:39.262Z,7.98
2019-04-26T04:06:13.401Z,8.09
2019-04-26T04:08:51.507Z,8.16
2019-04-26T04:11:25.223Z,8.18
2019-04-26T04:14:42.701Z,8.26
2019-04-26T04:17:50.715Z,8.40
2019-04-26T04:21:17.795Z,8.57
2019-04-26T04:24:14.406Z,8.66
2019-04-26T04:27:10.622Z,8.76
2019-04-26T04:30:09.653Z,8.86
2019-04-26T04:32:52.401Z,8.97
2019-04-26T04:35:25.080Z,9.12
2019-04-26T04:38:08.479Z,9.25
2019-04-26T04:41:17.044Z,9.36
2019-04-26T04:43:58.855Z,9.50
2019-04-26T04:47:23.657Z,9.69
2019-04-26T04:50:06.883Z,9.81
2019-04-26T04:52:44.530Z,9.94
2019-04-26T04:55:24.262Z,10.12
2019-04-26T04:58:05.695Z,10.35
2019-04-26T05:01:07.435Z,10.53
2019-04-26T05:03:54.726Z,10.67
2019-04-26T05:06:53.365Z,10.68
2019-04-26T05:09:30.083Z,10.77
2019-04-26T05:12:35.303Z,10.93
2019-04-26T05:16:08.314Z,11.06
2019-04-26T05:19:05.890Z,11.07
2019-04-26T05:22:27.817Z,11.14
2019-04-26T05:26:33.191Z,11.21
2019-04-26T05:29:20.104Z,11.19
2019-04-26T05:32:01.253Z,11.13
2019-04-26T05:34:41.163Z,11.25
2019-04-26T05:37:39.532Z,11.30
2019-04-26T05:40:27.847Z,11.23
2019-04-26T05:43:47.447Z,11.24
2019-04-26T05:47:22.872Z,11.16
2019-04-26T05:50:45.657Z,11.19
2019-04-26T05:54:24.209Z,11.31
2019-04-26T05:57:27.979Z,11.38
2019-04-26T06:00:52.201Z,11.39
2019-04-26T06:04:04.179Z,11.41
2019-04-26T06:06:42.538Z,11.62
2019-04-26T06:09:56.538Z,11.66
2019-04-26T06:13:01.372Z,11.75
2019-04-26T06:16:02.469Z,11.83
2019-04-26T06:19:03.803Z,12.04
2019-04-26T06:21:54.478Z,12.18
2019-04-26T06:24:52.699Z,12.32
2019-04-26T06:27:56.294Z,12.47
2019-04-26T06:30:45.610Z,12.58
2019-04-26T06:33:41.458Z,12.64
2019-04-26T06:36:27.517Z,12.59
2019-04-26T06:39:32.802Z,12.66
2019-04-26T06:42:49.179Z,12.72
2019-04-26T06:46:11.787Z,12.79
2019-04-26T06:49:07.178Z,12.91
2019-04-26T06:51:43.592Z,12.98
2019-04-26T06:54:53.956Z,12.98
2019-04-26T06:58:04.836Z,13.11
2019-04-26T07:01:15.069Z,13.30
2019-04-26T07:04:22.203Z,13.41
2019-04-26T07:07:25.689Z,13.47
2019-04-26T07:10:28.432Z,13.49
2019-04-26T07:13:27.946Z,13.48
2019-04-26T07:16:41.755Z,13.63
2019-04-26T07:19:52.302Z,13.82
2019-04-26T07:22:54.197Z,14.02
2019-04-26T07:26:15.045Z,14.16
2019-04-26T07:29:09.186Z,14.30
2019-04-26T07:32:07.374Z,14.34
2019-04-26T07:35:02.632Z,14.43
2019-04-26T07:38:18.670Z,14.60
2019-04-26T07:41:30.835Z,14.66
2019-04-26T07:44:30.039Z,14.81
2019-04-26T07:48:11.624Z,14.95
2019-04-26T07:51:26.685Z,15.04
2019-04-26T07:54:37.315Z,15.23
2019-04-26T07:57:46.336Z,15.32
2019-04-26T08:00:45.179Z,15.21
2019-04-26T08:03:24.662Z,15.21
2019-04-26T08:06:01.728Z,15.11
2019-04-26T08:08:39.214Z,15.26
2019-04-26T08:11:23.070Z,15.35
2019-04-26T08:14:02.191Z,15.48
2019-04-26T08:17:05.390Z,15.60
2019-04-26T08:19:41.557Z,15.68
2019-04-26T08:22:20.357Z,15.71
2019-04-26T08:24:47.857Z,15.94
2019-04-26T08:27:23.997Z,16.04
2019-04-26T08:30:03.359Z,16.18
2019-04-26T08:32:34.842Z,16.32
2019-04-26T08:35:30.463Z,16.52
2019-04-26T08:38:16.020Z,16.67
2019-04-26T08:40:41.734Z,16.93
2019-04-26T08:43:36.762Z,17.00
2019-04-26T08:46:26.314Z,17.06
2019-04-26T08:49:23.917Z,17.20
2019-04-26T08:51:57.257Z,17.20
2019-04-26T08:54:32.622Z,17.19
2019-04-26T08:57:29.059Z,17.19
2019-04-26T09:00:00.759Z,17.32
2019-04-26T09:02:51.015Z,17.51
2019-04-26T09:05:45.664Z,17.61
2019-04-26T09:08:17.053Z,17.68
2019-04-26T09:10:50.573Z,17.84
2019-04-26T09:13:23.096Z,18.00
2019-04-26T09:16:15.096Z,18.09
2019-04-26T09:18:52.403Z,18.26
2019-04-26T09:21:23.793Z,18.45
2019-04-26T09:24:27.200Z,18.47
2019-04-26T09:27:13.473Z,18.59
2019-04-26T09:29:51.806Z,18.72
2019-04-26T09:32:27.912Z,18.69
2019-04-26T09:34:56.421Z,18.69
2019-04-26T09:37:26.065Z,18.84
2019-04-26T09:39:55.612Z,18.95
2019-04-26T09:42:32.469Z,19.07
2019-04-26T09:45:39.403Z,19.26
2019-04-26T09:48:17.696Z,19.25
2019-04-26T09:50:48.898Z,19.39
2019-04-26T09:53:21.989Z,19.46
2019-04-26T09:55:51.400Z,19.51
2019-04-26T09:58:23.081Z,19.64
2019-04-26T10:00:52.478Z,19.73
2019-04-26T10:03:22.015Z,19.80
2019-04-26T10:05:55.622Z,19.78
2019-04-26T10:08:23.449Z,19.84
2019-04-26T10:10:53.874Z,19.83
2019-04-26T10:13:45.293Z,19.89
2019-04-26T10:16:33.504Z,20.00
2019-04-26T10:19:09.236Z,20.05
2019-04-26T10:21:38.643Z,20.14
2019-04-26T10:24:08.652Z,20.31
2019-04-26T10:26:38.333Z,20.39
2019-04-26T10:29:07.697Z,20.50
2019-04-26T10:31:37.076Z,20.69
2019-04-26T10:34:07.767Z,20.85
2019-04-26T10:36:37.632Z,20.98
2019-04-26T10:39:10.693Z,20.94
2019-04-26T10:41:41.039Z,20.90
2019-04-26T10:44:10.466Z,20.91
2019-04-26T10:46:40.085Z,20.87
2019-04-26T10:49:43.213Z,20.98
2019-04-26T10:52:36.341Z,21.06
2019-04-26T10:55:40.963Z,21.21
2019-04-26T10:58:18.357Z,21.25
2019-04-26T11:00:52.625Z,21.33
2019-04-26T11:03:22.039Z,21.43
2019-04-26T11:05:55.383Z,21.46
2019-04-26T11:08:24.985Z,21.51
2019-04-26T11:10:55.978Z,21.71
2019-04-26T11:13:26.382Z,21.75
2019-04-26T11:15:55.861Z,21.83
2019-04-26T11:18:27.437Z,21.91
2019-04-26T11:20:56.443Z,22.11
2019-04-26T11:23:26.204Z,22.01
2019-04-26T11:25:57.850Z,22.11
2019-04-26T11:28:27.154Z,22.17
2019-04-26T11:30:57.519Z,22.28
2019-04-26T11:33:30.480Z,22.38
2019-04-26T11:36:03.382Z,22.46
2019-04-26T11:38:32.494Z,22.40
2019-04-26T11:41:06.151Z,22.39
2019-04-26T11:43:33.371Z,22.49
2019-04-26T11:46:04.512Z,22.57
2019-04-26T11:48:34.054Z,22.53
2019-04-26T11:51:03.425Z,22.58
2019-04-26T11:53:33.526Z,22.62
2019-04-26T11:56:04.512Z,22.62
2019-04-26T11:58:34.594Z,22.69
2019-04-26T12:01:05.649Z,22.85
2019-04-26T12:03:35.114Z,22.98
2019-04-26T12:06:24.381Z,23.14
2019-04-26T12:08:59.621Z,23.15
2019-04-26T12:11:35.014Z,23.15
2019-04-26T12:14:03.989Z,23.18
2019-04-26T12:16:48.116Z,23.18
2019-04-26T12:19:14.244Z,23.25
2019-04-26T12:21:41.891Z,23.40
2019-04-26T12:24:11.323Z,23.49
2019-04-26T12:26:43.120Z,23.55
2019-04-26T12:29:14.688Z,23.64
2019-04-26T12:31:46.935Z,23.73
2019-04-26T12:34:17.946Z,23.78
2019-04-26T12:36:47.446Z,23.80
2019-04-26T12:39:17.680Z,23.83
2019-04-26T12:41:47.300Z,23.90
2019-04-26T12:44:16.899Z,23.97
2019-04-26T12:47:05.218Z,24.13
2019-04-26T12:49:35.509Z,24.12
2019-04-26T12:52:05.149Z,24.11
2019-04-26T12:54:34.647Z,24.14
2019-04-26T12:57:05.951Z,24.21
2019-04-26T12:59:43.976Z,24.19
2019-04-26T13:02:06.688Z,24.19
2019-04-26T13:04:36.728Z,24.22
2019-04-26T13:07:22.623Z,24.11
2019-04-26T13:10:03.367Z,24.05
2019-04-26T13:12:44.413Z,23.92
2019-04-26T13:15:50.304Z,23.96
2019-04-26T13:18:21.095Z,24.06
2019-04-26T13:20:50.490Z,24.09
2019-04-26T13:23:20.015Z,24.05
2019-04-26T13:25:49.411Z,23.99
2019-04-26T13:28:20.269Z,23.98
2019-04-26T13:30:49.889Z,23.93
2019-04-26T13:33:23.130Z,23.92
2019-04-26T13:36:02.521Z,24.05
2019-04-26T13:38:25.245Z,24.10
2019-04-26T13:40:54.778Z,24.21
2019-04-26T13:43:26.982Z,24.24
2019-04-26T13:46:20.828Z,24.16
2019-04-26T13:49:18.173Z,24.06
2019-04-26T13:51:46.376Z,24.05
2019-04-26T13:54:16.521Z,24.18
2019-04-26T13:56:47.342Z,24.19
2019-04-26T13:59:16.983Z,24.20
2019-04-26T14:01:46.454Z,24.12
2019-04-26T14:04:16.040Z,24.12
2019-04-26T14:06:45.435Z,24.05
2019-04-26T14:09:15.896Z,24.03
2019-04-26T14:11:45.795Z,23.98
2019-04-26T14:14:15.323Z,24.08
2019-04-26T14:16:45.002Z,24.11
2019-04-26T14:19:16.718Z,24.08
2019-04-26T14:21:45.913Z,24.10
2019-04-26T14:24:40.300Z,24.12
2019-04-26T14:27:16.655Z,24.02
2019-04-26T14:29:48.872Z,24.05
2019-04-26T14:32:23.029Z,24.06
2019-04-26T14:34:49.998Z,24.06
2019-04-26T14:37:19.473Z,24.01
2019-04-26T14:39:51.083Z,23.92
2019-04-26T14:42:32.959Z,23.91
2019-04-26T14:44:52.229Z,23.96
2019-04-26T14:47:21.821Z,24.02
2019-04-26T14:49:53.449Z,23.96
2019-04-26T14:52:27.778Z,23.90
2019-04-26T14:54:58.125Z,23.82
2019-04-26T14:57:31.441Z,23.82
2019-04-26T14:59:59.775Z,23.85
2019-04-26T15:02:56.342Z,23.92
2019-04-26T15:05:30.847Z,24.02
2019-04-26T15:08:05.401Z,24.01
2019-04-26T15:10:44.354Z,23.98
2019-04-26T15:13:19.973Z,23.89
2019-04-26T15:15:43.329Z,23.84
2019-04-26T15:18:13.251Z,23.63
2019-04-26T15:20:43.831Z,23.38
2019-04-26T15:23:13.406Z,23.19
2019-04-26T15:25:48.415Z,22.97
2019-04-26T15:28:14.650Z,22.95
2019-04-26T15:30:46.800Z,22.95
2019-04-26T15:33:15.327Z,22.83
2019-04-26T15:35:47.734Z,22.64
2019-04-26T15:38:23.537Z,22.50
2019-04-26T15:41:16.703Z,22.45
2019-04-26T15:43:53.006Z,22.57
2019-04-26T15:46:42.566Z,22.54
2019-04-26T15:49:36.830Z,22.44
2019-04-26T15:52:07.046Z,22.27
2019-04-26T15:54:36.412Z,22.21
2019-04-26T15:57:06.640Z,22.12
2019-04-26T15:59:36.187Z,22.04
2019-04-26T16:02:06.614Z,22.00
2019-04-26T16:04:36.115Z,22.03
2019-04-26T16:07:06.407Z,22.04
2019-04-26T16:09:36.246Z,21.99
2019-04-26T16:12:06.525Z,21.98
2019-04-26T16:14:36.962Z,22.03
2019-04-26T16:17:06.879Z,22.12
2019-04-26T16:19:36.358Z,22.61
2019-04-26T16:22:06.616Z,23.12
2019-04-26T16:24:35.965Z,23.66
2019-04-26T16:27:05.595Z,24.10
2019-04-26T16:32:52.615Z,24.93
2019-04-26T16:35:28.310Z,25.13
2019-04-26T16:38:00.060Z,25.31
2019-04-26T16:40:29.964Z,25.36
2019-04-26T16:42:59.826Z,25.18
2019-04-26T16:45:29.532Z,24.84
2019-04-26T16:47:59.028Z,24.69
2019-04-26T16:50:31.585Z,24.45
2019-04-26T16:52:59.540Z,24.50
2019-04-26T16:55:28.945Z,24.26
2019-04-26T16:57:58.414Z,24.08
2019-04-26T17:00:31.755Z,24.49
2019-04-26T17:00:48.277Z,23.74
2019-04-26T17:05:47.887Z,23.32
2019-04-26T17:08:05.156Z,23.12
2019-04-26T17:09:51.073Z,23.49
2019-04-26T17:10:37.976Z,23.16
2019-04-26T17:13:08.870Z,23.11
2019-04-26T17:15:38.295Z,22.80
2019-04-26T17:18:07.950Z,22.48
2019-04-26T17:20:40.432Z,22.14
2019-04-26T17:23:42.979Z,21.71
2019-04-26T17:26:36.221Z,21.21
2019-04-26T17:29:04.561Z,20.76
2019-04-26T17:31:34.015Z,20.52
2019-04-26T17:34:05.219Z,20.24
2019-04-26T17:36:35.280Z,20.02
2019-04-26T17:39:10.978Z,19.87
2019-04-26T17:41:43.267Z,19.75
2019-04-26T17:44:13.069Z,19.54
2019-04-26T17:46:41.606Z,19.38
2019-04-26T17:49:11.220Z,19.22
2019-04-26T17:51:44.144Z,19.10
2019-04-26T17:54:33.553Z,19.02
2019-04-26T17:56:43.024Z,18.94
2019-04-26T17:59:30.161Z,18.85
2019-04-26T18:01:48.058Z,18.69
2019-04-26T18:04:15.023Z,18.49
2019-04-26T18:06:54.450Z,18.32
2019-04-26T18:09:38.013Z,18.15
2019-04-26T18:11:47.619Z,18.01
2019-04-26T18:14:21.487Z,17.92
2019-04-26T18:16:57.173Z,17.80
2019-04-26T18:19:39.087Z,17.69
2019-04-26T18:22:15.907Z,17.56
2019-04-26T18:24:45.403Z,17.40
2019-04-26T18:27:14.929Z,17.27
2019-04-26T18:29:45.016Z,17.13
2019-04-26T18:32:14.657Z,16.98
2019-04-26T18:34:44.092Z,16.87
2019-04-26T18:37:13.652Z,16.77
2019-04-26T18:39:44.441Z,16.66
2019-04-26T18:42:14.017Z,16.57
2019-04-26T18:44:47.812Z,16.50
2019-04-26T18:47:26.295Z,16.40
2019-04-26T18:49:58.084Z,16.32
2019-04-26T18:52:26.316Z,16.23
2019-04-26T18:55:05.764Z,16.12
2019-04-26T18:57:40.354Z,15.97
2019-04-26T19:00:14.364Z,15.82
2019-04-26T19:02:43.971Z,15.70
2019-04-26T19:05:15.856Z,15.55
2019-04-26T19:07:50.080Z,15.47
2019-04-26T19:10:21.493Z,15.40
2019-04-26T19:12:52.408Z,15.31
2019-04-26T19:15:43.358Z,15.27
2019-04-26T19:18:17.716Z,15.17
2019-04-26T19:20:56.026Z,15.10
2019-04-26T19:23:28.963Z,15.07
2019-04-26T19:25:57.343Z,15.01
2019-04-26T19:28:27.484Z,14.95
2019-04-26T19:30:57.014Z,14.93
2019-04-26T19:33:29.392Z,14.84
2019-04-26T19:35:58.853Z,14.79
2019-04-26T19:38:28.539Z,14.75
2019-04-26T19:40:58.307Z,14.70
2019-04-26T19:43:32.864Z,14.66
2019-04-26T19:46:16.960Z,14.61
2019-04-26T19:49:25.698Z,14.55
2019-04-26T19:52:24.325Z,14.52
2019-04-26T19:55:28.074Z,14.43
2019-04-26T19:58:03.526Z,14.35
2019-04-26T20:00:33.076Z,14.26
2019-04-26T20:03:02.530Z,14.18
2019-04-26T20:05:32.128Z,14.10
2019-04-26T20:08:04.597Z,14.05
2019-04-26T20:10:36.211Z,13.99
2019-04-26T20:13:07.619Z,13.90
2019-04-26T20:15:37.645Z,13.84
2019-04-26T20:18:07.030Z,13.78
2019-04-26T20:20:36.528Z,13.75
2019-04-26T20:23:07.840Z,13.72
2019-04-26T20:25:37.094Z,13.70
2019-04-26T20:28:09.484Z,13.69
2019-04-26T20:31:10.222Z,13.67
2019-04-26T20:33:44.250Z,13.63
2019-04-26T20:36:13.840Z,13.47
2019-04-26T20:38:47.291Z,13.36
2019-04-26T20:41:16.457Z,13.23
2019-04-26T20:43:56.604Z,13.14
2019-04-26T20:46:23.027Z,13.08
2019-04-26T20:48:52.080Z,13.00
2019-04-26T20:51:24.263Z,12.92
2019-04-26T20:53:53.820Z,12.85
2019-04-26T20:56:23.354Z,12.77
2019-04-26T20:58:52.929Z,12.71
2019-04-26T21:01:22.541Z,12.67
2019-04-26T21:03:52.229Z,12.58
2019-04-26T21:06:22.316Z,12.53
2019-04-26T21:08:54.043Z,12.47
2019-04-26T21:11:23.437Z,12.40
2019-04-26T21:13:55.199Z,12.35
2019-04-26T21:16:26.781Z,12.31
2019-04-26T21:18:56.524Z,12.26
2019-04-26T21:21:26.149Z,12.19
2019-04-26T21:23:55.553Z,12.11
2019-04-26T21:26:46.630Z,12.08
2019-04-26T21:29:41.621Z,12.05
2019-04-26T21:32:30.743Z,12.04
2019-04-26T21:35:03.528Z,11.98
2019-04-26T21:37:53.960Z,11.95
2019-04-26T21:40:29.226Z,11.92
2019-04-26T21:42:59.509Z,11.88
2019-04-26T21:45:31.127Z,11.84
2019-04-26T21:48:02.563Z,11.81
2019-04-26T21:50:44.474Z,11.80
2019-04-26T21:53:14.078Z,11.78
2019-04-26T21:55:43.549Z,11.77
2019-04-26T21:58:15.163Z,11.76
2019-04-26T22:00:56.720Z,11.75
2019-04-26T22:03:26.546Z,11.73
2019-04-26T22:06:01.143Z,11.70
2019-04-26T22:08:34.731Z,11.69
2019-04-26T22:11:04.423Z,11.67
2019-04-26T22:13:44.736Z,11.66
2019-04-26T22:16:32.007Z,11.66
2019-04-26T22:19:05.554Z,11.62
2019-04-26T22:21:44.479Z,11.60
2019-04-26T22:24:29.944Z,11.57
2019-04-26T22:26:59.479Z,11.56
2019-04-26T22:29:28.920Z,11.53
2019-04-26T22:31:58.769Z,11.54
2019-04-26T22:34:28.364Z,11.53
2019-04-26T22:37:11.584Z,11.48
2019-04-26T22:39:39.917Z,11.48
2019-04-26T22:42:10.363Z,11.42
2019-04-26T22:44:53.797Z,11.36
2019-04-26T22:47:27.548Z,11.30
2019-04-26T22:49:59.045Z,11.22
2019-04-26T22:52:28.391Z,11.17
2019-04-26T22:54:58.026Z,11.12
2019-04-26T22:57:27.800Z,11.10
2019-04-26T22:59:57.275Z,11.06
2019-04-26T23:02:27.597Z,11.02
2019-04-26T23:05:00.617Z,11.01
2019-04-26T23:07:28.644Z,10.95
2019-04-26T23:09:58.556Z,10.93
2019-04-26T23:12:47.304Z,10.89
2019-04-26T23:15:43.340Z,10.85
2019-04-26T23:18:38.724Z,10.83
2019-04-26T23:21:14.922Z,10.81
2019-04-26T23:23:44.282Z,10.78
2019-04-26T23:26:14.493Z,10.75
2019-04-26T23:28:44.151Z,10.73
2019-04-26T23:31:13.701Z,10.68
2019-04-26T23:33:43.190Z,10.67
2019-04-26T23:36:13.603Z,10.66
2019-04-26T23:38:43.820Z,10.64
2019-04-26T23:41:14.179Z,10.64
2019-04-26T23:43:44.852Z,10.64
2019-04-26T23:46:14.738Z,10.61
2019-04-26T23:48:48.659Z,10.55
2019-04-26T23:51:15.848Z,10.56
2019-04-26T23:53:45.216Z,10.51
2019-04-26T23:56:21.662Z,10.49
2019-04-26T23:58:46.064Z,10.44
